Michurinsk, Russia
Current Conditions -  °F | °C
As of 8:00 PM on Thursday 18 Dec 2014 (Local Time) from UUOO Reporting Station
Light Fog Light Fog  
Wind Chill: 27°   Ceiling: Unl
Heat Index: 27°   Visibility: 4mi
Dew Point: 25°   Wind: 0mph
Humidity: 93%   Direction: NA
Pressure: 29.91"   Gusts: NA
Location:  52.9°N, 40.5°E
Report Text: UUOO 181700Z 00000MPS 6000 MIFG SCT021 M03/M04 Q1013 NOSIG RMK 30390145
Loading
Personal Weather Stations






























Interactive Weather Map New forecast layout! Learn more

10-Day Weather Forecast

Advertisements
Track Severe Weather on mobile